createdAt,value
2022-11-19T00:00:12.590Z,0
2022-11-19T00:01:12.657Z,0
2022-11-19T00:02:12.943Z,0
2022-11-19T00:03:13.937Z,0
2022-11-19T00:04:12.705Z,0
2022-11-19T00:05:12.631Z,0
2022-11-19T00:06:12.645Z,0
2022-11-19T00:07:13.021Z,0
2022-11-19T00:08:15.639Z,0
2022-11-19T00:09:12.668Z,0
2022-11-19T00:10:12.685Z,0
2022-11-19T00:11:16.609Z,0
2022-11-19T00:12:12.646Z,0
2022-11-19T00:13:12.706Z,0
2022-11-19T00:14:15.774Z,0
2022-11-19T00:15:12.667Z,0
2022-11-19T00:16:12.647Z,0
2022-11-19T00:17:12.665Z,0
2022-11-19T00:18:12.693Z,0
2022-11-19T00:19:14.174Z,0
2022-11-19T00:20:12.649Z,0
2022-11-19T00:21:12.679Z,0
2022-11-19T00:22:12.724Z,0
2022-11-19T00:23:12.676Z,0
2022-11-19T00:24:12.678Z,0
2022-11-19T00:25:15.701Z,0
2022-11-19T00:26:12.674Z,0
2022-11-19T00:27:12.657Z,0
2022-11-19T00:28:12.648Z,0
2022-11-19T00:29:18.218Z,0
2022-11-19T00:31:02.610Z,0
2022-11-19T00:31:12.675Z,0
2022-11-19T00:32:12.649Z,0
2022-11-19T00:33:12.683Z,0
2022-11-19T00:34:12.682Z,0
2022-11-19T00:35:12.660Z,0
2022-11-19T00:36:12.695Z,0
2022-11-19T00:37:12.663Z,0
2022-11-19T00:38:12.687Z,0
2022-11-19T00:39:12.700Z,0
2022-11-19T00:40:12.677Z,0
2022-11-19T00:41:15.882Z,0
2022-11-19T00:42:12.718Z,0
2022-11-19T00:43:12.822Z,0
2022-11-19T00:44:12.761Z,0
2022-11-19T00:45:12.698Z,0
2022-11-19T00:46:12.680Z,0
2022-11-19T00:47:12.673Z,0
2022-11-19T00:48:12.756Z,0
2022-11-19T00:49:12.738Z,0
2022-11-19T00:50:12.697Z,0
2022-11-19T00:51:12.542Z,0
2022-11-19T00:52:15.488Z,0
2022-11-19T00:53:12.697Z,0
2022-11-19T00:54:12.746Z,0
2022-11-19T00:55:12.706Z,0
2022-11-19T00:56:12.712Z,0
2022-11-19T00:57:12.746Z,0
2022-11-19T00:58:12.722Z,0
2022-11-19T00:59:12.749Z,0
2022-11-19T01:00:12.706Z,0
2022-11-19T01:01:13.025Z,0
2022-11-19T01:02:12.714Z,0
2022-11-19T01:03:12.743Z,0
2022-11-19T01:04:12.771Z,0
2022-11-19T01:05:12.771Z,0
2022-11-19T01:06:18.759Z,0
2022-11-19T01:07:13.088Z,0
2022-11-19T01:08:12.812Z,0
2022-11-19T01:09:12.755Z,0
2022-11-19T01:10:12.721Z,0
2022-11-19T01:11:12.772Z,0
2022-11-19T01:12:12.757Z,0
2022-11-19T01:13:12.760Z,0
2022-11-19T01:14:12.971Z,0
2022-11-19T01:15:12.740Z,0
2022-11-19T01:16:12.813Z,0
2022-11-19T01:17:12.782Z,0
2022-11-19T01:18:12.816Z,0
2022-11-19T01:19:12.802Z,0
2022-11-19T01:20:13.082Z,0
2022-11-19T01:21:12.786Z,0
2022-11-19T01:22:12.815Z,0
2022-11-19T01:23:12.726Z,0
2022-11-19T01:24:15.992Z,0
2022-11-19T01:25:12.729Z,0
2022-11-19T01:26:12.736Z,0
2022-11-19T01:27:12.749Z,0
2022-11-19T01:28:12.747Z,0
2022-11-19T01:29:12.783Z,0
2022-11-19T01:30:12.804Z,0
2022-11-19T01:31:12.883Z,0
2022-11-19T01:32:12.760Z,0
2022-11-19T01:33:12.781Z,0
2022-11-19T01:34:12.778Z,0
2022-11-19T01:35:15.900Z,0
2022-11-19T01:36:12.773Z,0
2022-11-19T01:37:12.795Z,0
2022-11-19T01:38:12.781Z,0
2022-11-19T01:39:12.759Z,0
2022-11-19T01:40:13.243Z,0
2022-11-19T01:41:12.768Z,0
2022-11-19T01:42:12.851Z,0
2022-11-19T01:43:12.763Z,0
2022-11-19T01:44:12.788Z,0
2022-11-19T01:45:12.836Z,0
2022-11-19T01:46:15.848Z,0
2022-11-19T01:47:12.760Z,0
2022-11-19T01:48:12.789Z,0
2022-11-19T01:49:12.843Z,0
2022-11-19T01:50:12.805Z,0
2022-11-19T01:51:16.820Z,0
2022-11-19T01:52:12.805Z,0
2022-11-19T01:53:12.825Z,0
2022-11-19T01:54:12.822Z,0
2022-11-19T01:55:12.829Z,0
2022-11-19T01:56:12.786Z,0
2022-11-19T01:57:15.829Z,0
2022-11-19T01:58:12.794Z,0
2022-11-19T01:59:12.965Z,0
2022-11-19T02:00:12.836Z,0
2022-11-19T02:01:13.147Z,0
2022-11-19T02:02:14.238Z,0
2022-11-19T02:03:12.785Z,0
2022-11-19T02:04:12.804Z,0
2022-11-19T02:05:12.847Z,0
2022-11-19T02:06:12.818Z,0
2022-11-19T02:07:13.019Z,0
2022-11-19T02:08:12.996Z,0
2022-11-19T02:09:12.845Z,0
2022-11-19T02:10:12.857Z,0
2022-11-19T02:11:12.841Z,0
2022-11-19T02:12:12.870Z,0
2022-11-19T02:13:15.974Z,0
2022-11-19T02:14:12.843Z,0
2022-11-19T02:15:12.853Z,0
2022-11-19T02:16:12.847Z,0
2022-11-19T02:17:12.861Z,0
2022-11-19T02:18:12.876Z,0
2022-11-19T02:19:15.684Z,0
2022-11-19T02:20:12.858Z,0
2022-11-19T02:21:12.859Z,0
2022-11-19T02:22:12.814Z,0
2022-11-19T02:23:12.839Z,0
2022-11-19T02:24:15.651Z,0
2022-11-19T02:25:12.879Z,0
2022-11-19T02:26:12.843Z,0
2022-11-19T02:27:12.934Z,0
2022-11-19T02:28:12.843Z,0
2022-11-19T02:29:12.851Z,0
2022-11-19T02:30:14.128Z,0
2022-11-19T02:31:12.846Z,0
2022-11-19T02:32:12.835Z,0
2022-11-19T02:33:12.929Z,0
2022-11-19T02:34:12.877Z,0
2022-11-19T02:35:15.740Z,0
2022-11-19T02:36:12.858Z,0
2022-11-19T02:37:12.930Z,0
2022-11-19T02:38:12.853Z,0
2022-11-19T02:39:12.839Z,0
2022-11-19T02:40:12.905Z,0
2022-11-19T02:41:16.013Z,0
2022-11-19T02:42:12.941Z,0
2022-11-19T02:43:12.863Z,0
2022-11-19T02:44:12.862Z,0
2022-11-19T02:45:12.883Z,0
2022-11-19T02:46:15.644Z,0
2022-11-19T02:47:12.872Z,0
2022-11-19T02:48:12.880Z,0
2022-11-19T02:49:12.902Z,0
2022-11-19T02:50:12.944Z,0
2022-11-19T02:51:12.887Z,0
2022-11-19T02:52:15.997Z,0
2022-11-19T02:53:12.907Z,0
2022-11-19T02:54:12.875Z,0
2022-11-19T02:55:12.915Z,0
2022-11-19T02:56:12.913Z,0
2022-11-19T02:57:15.724Z,0
2022-11-19T02:58:12.878Z,0
2022-11-19T02:59:12.927Z,0
2022-11-19T03:00:12.937Z,0
2022-11-19T03:01:13.137Z,0
2022-11-19T03:02:13.000Z,0
2022-11-19T03:03:15.707Z,0
2022-11-19T03:04:12.921Z,0
2022-11-19T03:05:12.997Z,0
2022-11-19T03:06:12.930Z,0
2022-11-19T03:07:13.240Z,0
2022-11-19T03:08:16.023Z,0
2022-11-19T03:09:12.926Z,0
2022-11-19T03:10:12.923Z,0
2022-11-19T03:11:12.914Z,0
2022-11-19T03:12:12.902Z,0
2022-11-19T03:13:12.946Z,0
2022-11-19T03:14:12.928Z,0
2022-11-19T03:15:12.943Z,0
2022-11-19T03:16:12.989Z,0
2022-11-19T03:17:12.906Z,0
2022-11-19T03:18:12.987Z,0
2022-11-19T03:19:16.077Z,0
2022-11-19T03:20:12.991Z,0
2022-11-19T03:21:12.956Z,0
2022-11-19T03:22:12.979Z,0
2022-11-19T03:23:12.926Z,0
2022-11-19T03:24:12.985Z,0
2022-11-19T03:25:12.976Z,0
2022-11-19T03:26:12.934Z,0
2022-11-19T03:27:12.965Z,0
2022-11-19T03:28:12.915Z,0
2022-11-19T03:29:12.973Z,0
2022-11-19T03:30:13.177Z,0
2022-11-19T03:31:12.927Z,0
2022-11-19T03:32:12.966Z,0
2022-11-19T03:33:12.981Z,0
2022-11-19T03:34:12.979Z,0
2022-11-19T03:35:12.971Z,0
2022-11-19T03:36:12.947Z,0
2022-11-19T03:37:12.986Z,0
2022-11-19T03:38:13.029Z,0
2022-11-19T03:39:12.968Z,0
2022-11-19T03:40:13.041Z,0
2022-11-19T03:41:12.963Z,0
2022-11-19T03:42:13.002Z,0
2022-11-19T03:43:13.038Z,0
2022-11-19T03:44:12.954Z,0
2022-11-19T03:45:13.010Z,0
2022-11-19T03:46:12.960Z,0
2022-11-19T03:47:12.994Z,0
2022-11-19T03:48:12.999Z,0
2022-11-19T03:49:12.990Z,0
2022-11-19T03:50:13.077Z,0
2022-11-19T03:51:16.001Z,0
2022-11-19T03:52:12.987Z,0
2022-11-19T03:53:13.176Z,0
2022-11-19T03:54:13.010Z,0
2022-11-19T03:55:13.034Z,0
2022-11-19T03:56:13.011Z,0
2022-11-19T03:57:13.078Z,0
2022-11-19T03:58:13.018Z,0
2022-11-19T03:59:15.356Z,0
2022-11-19T04:00:13.022Z,0
2022-11-19T04:01:13.030Z,0
2022-11-19T04:02:16.131Z,0
2022-11-19T04:03:13.093Z,0
2022-11-19T04:04:13.007Z,0
2022-11-19T04:05:13.073Z,0
2022-11-19T04:06:13.038Z,0
2022-11-19T04:07:13.366Z,0
2022-11-19T04:08:13.040Z,0
2022-11-19T04:09:13.075Z,0
2022-11-19T04:10:13.110Z,0
2022-11-19T04:12:13.160Z,0
2022-11-19T04:13:15.856Z,0
2022-11-19T04:14:13.022Z,0
2022-11-19T04:15:13.045Z,0
2022-11-19T04:16:13.049Z,0
2022-11-19T04:17:13.050Z,0
2022-11-19T04:18:16.223Z,0
2022-11-19T04:19:13.057Z,0
2022-11-19T04:20:13.075Z,0
2022-11-19T04:21:13.008Z,0
2022-11-19T04:22:13.024Z,0
2022-11-19T04:23:13.058Z,0
2022-11-19T04:24:16.192Z,0
2022-11-19T04:25:13.067Z,0
2022-11-19T04:26:13.105Z,0
2022-11-19T04:27:13.019Z,0
2022-11-19T04:28:15.979Z,0
2022-11-19T04:29:14.144Z,0
2022-11-19T04:30:13.166Z,0
2022-11-19T04:31:20.297Z,0
2022-11-19T04:32:13.081Z,0
2022-11-19T04:33:13.088Z,0
2022-11-19T04:34:13.089Z,0
2022-11-19T04:35:16.114Z,0
2022-11-19T04:36:13.049Z,0
2022-11-19T04:37:13.046Z,0
2022-11-19T04:38:13.052Z,0
2022-11-19T04:39:13.087Z,0
2022-11-19T04:40:15.676Z,0
2022-11-19T04:41:13.198Z,0
2022-11-19T04:42:13.111Z,0
2022-11-19T04:43:13.066Z,0
2022-11-19T04:44:13.083Z,0
2022-11-19T04:45:13.084Z,0
2022-11-19T04:46:16.059Z,0
2022-11-19T04:47:13.062Z,0
2022-11-19T04:48:13.076Z,0
2022-11-19T04:49:13.139Z,0
2022-11-19T04:51:15.831Z,0
2022-11-19T04:52:13.054Z,0
2022-11-19T04:53:13.085Z,0
2022-11-19T04:54:13.173Z,0
2022-11-19T04:55:13.185Z,0
2022-11-19T04:56:13.149Z,0
2022-11-19T04:57:14.170Z,0
2022-11-19T04:58:13.122Z,0
2022-11-19T04:59:13.056Z,0
2022-11-19T05:00:13.190Z,0
2022-11-19T05:01:13.418Z,0
2022-11-19T05:02:15.974Z,0
2022-11-19T05:03:13.092Z,0
2022-11-19T05:04:13.064Z,0
2022-11-19T05:05:13.229Z,0
2022-11-19T05:06:13.116Z,0
2022-11-19T05:07:13.298Z,0
2022-11-19T05:08:16.104Z,0
2022-11-19T05:09:13.084Z,0
2022-11-19T05:10:13.152Z,0
2022-11-19T05:11:13.108Z,0
2022-11-19T05:12:13.154Z,0
2022-11-19T05:13:15.862Z,0
2022-11-19T05:14:13.144Z,0
2022-11-19T05:15:13.163Z,0
2022-11-19T05:16:13.145Z,0
2022-11-19T05:17:13.161Z,0
2022-11-19T05:18:13.150Z,0
2022-11-19T05:19:15.917Z,0
2022-11-19T05:20:13.133Z,0
2022-11-19T05:21:13.136Z,0
2022-11-19T05:22:13.128Z,0
2022-11-19T05:23:13.121Z,0
2022-11-19T05:24:16.120Z,0
2022-11-19T05:25:13.154Z,0
2022-11-19T05:26:13.132Z,0
2022-11-19T05:27:13.146Z,0
2022-11-19T05:28:13.147Z,0
2022-11-19T05:29:13.136Z,0
2022-11-19T05:30:13.184Z,0
2022-11-19T05:31:13.145Z,0
2022-11-19T05:32:13.149Z,0
2022-11-19T05:33:13.186Z,0
2022-11-19T05:34:13.129Z,0
2022-11-19T05:35:16.347Z,0
2022-11-19T05:36:13.184Z,0
2022-11-19T05:37:13.219Z,0
2022-11-19T05:38:13.131Z,0
2022-11-19T05:39:16.217Z,0
2022-11-19T05:40:13.269Z,0
2022-11-19T05:41:13.137Z,0
2022-11-19T05:42:13.138Z,0
2022-11-19T05:43:13.154Z,0
2022-11-19T05:44:13.183Z,0
2022-11-19T05:45:13.188Z,0
2022-11-19T05:46:16.409Z,0
2022-11-19T05:47:13.173Z,0
2022-11-19T05:48:13.202Z,0
2022-11-19T05:49:13.167Z,0
2022-11-19T05:50:13.210Z,0
2022-11-19T05:51:13.212Z,0
2022-11-19T05:52:13.158Z,0
2022-11-19T05:53:13.195Z,0
2022-11-19T05:54:13.407Z,0
2022-11-19T05:55:13.192Z,0
2022-11-19T05:56:13.171Z,0
2022-11-19T05:57:13.184Z,0
2022-11-19T05:58:13.170Z,0
2022-11-19T05:59:13.165Z,0
2022-11-19T06:00:13.227Z,0
2022-11-19T06:01:13.167Z,0
2022-11-19T06:02:13.213Z,0
2022-11-19T06:03:13.580Z,0
2022-11-19T06:04:13.272Z,0
2022-11-19T06:05:13.219Z,0
2022-11-19T06:06:13.200Z,0
2022-11-19T06:07:13.478Z,0
2022-11-19T06:08:13.056Z,0
2022-11-19T06:09:13.229Z,0
2022-11-19T06:10:13.320Z,0
2022-11-19T06:11:13.248Z,0
2022-11-19T06:12:13.200Z,0
2022-11-19T06:13:13.216Z,0
2022-11-19T06:14:13.195Z,0
2022-11-19T06:15:13.216Z,0
2022-11-19T06:16:13.278Z,0
2022-11-19T06:17:13.244Z,0
2022-11-19T06:18:16.278Z,0
2022-11-19T06:19:13.214Z,0
2022-11-19T06:20:13.639Z,0
2022-11-19T06:21:18.848Z,0
2022-11-19T06:22:13.196Z,4
2022-11-19T06:23:13.242Z,0
2022-11-19T06:24:13.211Z,0
2022-11-19T06:25:13.265Z,0
2022-11-19T06:26:13.060Z,0
2022-11-19T06:27:13.128Z,4
2022-11-19T06:28:13.281Z,4
2022-11-19T06:29:16.445Z,4
2022-11-19T06:30:13.078Z,0
2022-11-19T06:31:13.236Z,0
2022-11-19T06:32:13.293Z,4
2022-11-19T06:33:13.249Z,4
2022-11-19T06:34:13.323Z,4
2022-11-19T06:35:17.458Z,4
2022-11-19T06:36:13.252Z,4
2022-11-19T06:37:13.242Z,4
2022-11-19T06:38:13.452Z,4
2022-11-19T06:39:13.228Z,4
2022-11-19T06:40:16.085Z,4
2022-11-19T06:41:13.267Z,4
2022-11-19T06:42:13.257Z,4
2022-11-19T06:43:13.249Z,4
2022-11-19T06:44:13.242Z,4
2022-11-19T06:45:16.075Z,4
2022-11-19T06:46:13.252Z,4
2022-11-19T06:47:13.299Z,4
2022-11-19T06:48:13.339Z,4
2022-11-19T06:49:20.439Z,4
2022-11-19T06:50:13.284Z,8
2022-11-19T06:51:16.051Z,4
2022-11-19T06:52:13.252Z,4
2022-11-19T06:53:13.292Z,8
2022-11-19T06:54:13.284Z,4
2022-11-19T06:55:13.294Z,8
2022-11-19T06:56:14.489Z,4
2022-11-19T06:57:13.132Z,8
2022-11-19T06:58:13.252Z,8
2022-11-19T06:59:13.268Z,4
2022-11-19T07:00:13.274Z,8
2022-11-19T07:01:13.332Z,8
2022-11-19T07:02:21.806Z,8
2022-11-19T07:03:13.274Z,8
2022-11-19T07:04:13.294Z,8
2022-11-19T07:05:13.109Z,8
2022-11-19T07:06:13.336Z,8
2022-11-19T07:07:16.480Z,8
2022-11-19T07:08:13.290Z,12
2022-11-19T07:09:13.295Z,8
2022-11-19T07:10:13.279Z,12
2022-11-19T07:11:13.348Z,12
2022-11-19T07:12:13.326Z,12
2022-11-19T07:13:16.471Z,12
2022-11-19T07:14:13.124Z,16
2022-11-19T07:15:13.373Z,16
2022-11-19T07:16:13.306Z,16
2022-11-19T07:17:13.312Z,16
2022-11-19T07:18:16.376Z,20
2022-11-19T07:19:13.488Z,20
2022-11-19T07:20:13.327Z,20
2022-11-19T07:21:13.314Z,20
2022-11-19T07:22:13.363Z,20
2022-11-19T07:23:13.311Z,20
2022-11-19T07:24:16.361Z,20
2022-11-19T07:25:13.298Z,24
2022-11-19T07:26:13.343Z,20
2022-11-19T07:27:13.295Z,24
2022-11-19T07:28:13.326Z,20
2022-11-19T07:29:21.224Z,20
2022-11-19T07:30:13.329Z,20
2022-11-19T07:31:13.380Z,16
2022-11-19T07:32:13.316Z,16
2022-11-19T07:33:13.319Z,16
2022-11-19T07:34:13.316Z,20
2022-11-19T07:35:16.163Z,20
2022-11-19T07:36:20.668Z,16
2022-11-19T07:37:13.155Z,16
2022-11-19T07:38:13.427Z,16
2022-11-19T07:39:13.353Z,16
2022-11-19T07:40:16.143Z,16
2022-11-19T07:41:13.364Z,16
2022-11-19T07:42:13.336Z,20
2022-11-19T07:43:13.333Z,24
2022-11-19T07:44:13.337Z,24
2022-11-19T07:45:13.235Z,28
2022-11-19T07:46:16.184Z,28
2022-11-19T07:47:13.357Z,32
2022-11-19T07:48:13.353Z,32
2022-11-19T07:49:13.443Z,36
2022-11-19T07:50:13.367Z,36
2022-11-19T07:51:14.550Z,32
2022-11-19T07:52:13.463Z,32
2022-11-19T07:53:13.369Z,32
2022-11-19T07:54:13.409Z,32
2022-11-19T07:55:13.437Z,32
2022-11-19T07:56:13.385Z,32
2022-11-19T07:57:13.390Z,32
2022-11-19T07:58:13.393Z,28
2022-11-19T07:59:13.397Z,28
2022-11-19T08:00:13.391Z,32
2022-11-19T08:01:13.427Z,32
2022-11-19T08:02:16.761Z,32
2022-11-19T08:03:13.250Z,36
2022-11-19T08:04:13.369Z,40
2022-11-19T08:05:13.364Z,40
2022-11-19T08:06:13.407Z,44
2022-11-19T08:07:13.943Z,48
2022-11-19T08:08:13.418Z,52
2022-11-19T08:09:13.412Z,56
2022-11-19T08:10:13.415Z,60
2022-11-19T08:11:13.434Z,64
2022-11-19T08:12:13.376Z,68
2022-11-19T08:13:16.007Z,76
2022-11-19T08:14:13.398Z,72
2022-11-19T08:15:13.370Z,80
2022-11-19T08:16:13.462Z,76
2022-11-19T08:17:13.433Z,76
2022-11-19T08:18:13.397Z,84
2022-11-19T08:19:13.369Z,88
2022-11-19T08:20:13.416Z,84
2022-11-19T08:21:13.436Z,88
2022-11-19T08:22:13.389Z,88
2022-11-19T08:23:14.487Z,84
2022-11-19T08:24:13.381Z,84
2022-11-19T08:25:13.404Z,80
2022-11-19T08:26:13.556Z,76
2022-11-19T08:27:13.475Z,80
2022-11-19T08:28:13.404Z,84
2022-11-19T08:29:21.227Z,88
2022-11-19T08:30:13.493Z,88
2022-11-19T08:31:13.474Z,88
2022-11-19T08:32:13.273Z,92
2022-11-19T08:33:13.442Z,92
2022-11-19T08:34:13.445Z,92
2022-11-19T08:35:13.410Z,100
2022-11-19T08:36:13.417Z,108
2022-11-19T08:37:13.415Z,116
2022-11-19T08:38:13.422Z,124
2022-11-19T08:39:13.447Z,140
2022-11-19T08:40:13.459Z,156
2022-11-19T08:41:13.439Z,172
2022-11-19T08:42:13.471Z,184
2022-11-19T08:43:13.458Z,192
2022-11-19T08:44:13.433Z,196
2022-11-19T08:45:23.173Z,200
2022-11-19T08:46:13.482Z,204
2022-11-19T08:47:13.413Z,212
2022-11-19T08:48:13.671Z,204
2022-11-19T08:49:13.472Z,200
2022-11-19T08:50:13.428Z,200
2022-11-19T08:51:13.487Z,208
2022-11-19T08:52:13.470Z,212
2022-11-19T08:53:13.465Z,216
2022-11-19T08:54:13.494Z,224
2022-11-19T08:55:13.686Z,220
2022-11-19T08:56:22.465Z,204
2022-11-19T08:57:13.474Z,200
2022-11-19T08:58:13.493Z,192
2022-11-19T08:59:13.444Z,200
2022-11-19T09:00:13.650Z,208
2022-11-19T09:01:13.803Z,208
2022-11-19T09:02:13.374Z,212
2022-11-19T09:03:13.466Z,200
2022-11-19T09:04:13.457Z,196
2022-11-19T09:05:19.401Z,184
2022-11-19T09:06:13.464Z,168
2022-11-19T09:07:16.583Z,148
2022-11-19T09:08:13.484Z,136
2022-11-19T09:09:13.476Z,120
2022-11-19T09:10:13.487Z,108
2022-11-19T09:11:13.505Z,96
2022-11-19T09:12:13.719Z,88
2022-11-19T09:13:13.501Z,100
2022-11-19T09:14:13.793Z,112
2022-11-19T09:15:13.529Z,132
2022-11-19T09:16:13.472Z,140
2022-11-19T09:17:13.520Z,148
2022-11-19T09:18:16.375Z,156
2022-11-19T09:19:13.493Z,188
2022-11-19T09:20:13.490Z,204
2022-11-19T09:21:13.521Z,216
2022-11-19T09:22:13.502Z,220
2022-11-19T09:23:16.347Z,224
2022-11-19T09:24:13.525Z,228
2022-11-19T09:25:13.627Z,224
2022-11-19T09:26:13.510Z,228
2022-11-19T09:27:13.540Z,232
2022-11-19T09:28:13.520Z,240
2022-11-19T09:29:16.503Z,252
2022-11-19T09:30:14.048Z,256
2022-11-19T09:31:13.556Z,280
2022-11-19T09:32:13.523Z,300
2022-11-19T09:33:13.495Z,316
2022-11-19T09:34:16.256Z,316
2022-11-19T09:35:13.539Z,332
2022-11-19T09:36:13.550Z,356
2022-11-19T09:37:13.737Z,376
2022-11-19T09:38:13.513Z,368
2022-11-19T09:39:13.533Z,368
2022-11-19T09:40:16.682Z,380
2022-11-19T09:41:13.554Z,392
2022-11-19T09:42:13.539Z,408
2022-11-19T09:43:20.304Z,420
2022-11-19T09:44:13.557Z,424
2022-11-19T09:45:16.356Z,392
2022-11-19T09:46:16.515Z,364
2022-11-19T09:47:13.552Z,336
2022-11-19T09:48:13.629Z,324
2022-11-19T09:49:13.598Z,328
2022-11-19T09:50:13.587Z,344
2022-11-19T09:51:16.666Z,348
2022-11-19T09:52:13.576Z,336
2022-11-19T09:53:13.653Z,336
2022-11-19T09:54:13.591Z,332
2022-11-19T09:55:13.534Z,328
2022-11-19T09:56:16.675Z,324
2022-11-19T09:57:13.565Z,316
2022-11-19T09:58:13.593Z,312
2022-11-19T09:59:13.577Z,316
2022-11-19T10:00:13.542Z,320
2022-11-19T10:01:13.586Z,336
2022-11-19T10:02:16.463Z,352
2022-11-19T10:03:13.812Z,364
2022-11-19T10:04:13.556Z,384
2022-11-19T10:05:13.589Z,388
2022-11-19T10:06:13.580Z,384
2022-11-19T10:07:16.681Z,388
2022-11-19T10:08:13.553Z,392
2022-11-19T10:09:13.609Z,396
2022-11-19T10:10:19.086Z,396
2022-11-19T10:11:13.573Z,396
2022-11-19T10:12:13.582Z,400
2022-11-19T10:13:16.353Z,420
2022-11-19T10:14:13.630Z,444
2022-11-19T10:15:13.649Z,456
2022-11-19T10:16:13.610Z,452
2022-11-19T10:17:13.601Z,428
2022-11-19T10:18:14.661Z,388
2022-11-19T10:19:13.714Z,352
2022-11-19T10:20:13.601Z,332
2022-11-19T10:21:13.587Z,312
2022-11-19T10:22:13.648Z,304
2022-11-19T10:23:13.585Z,296
2022-11-19T10:24:16.825Z,288
2022-11-19T10:25:13.607Z,272
2022-11-19T10:26:13.574Z,252
2022-11-19T10:27:15.669Z,240
2022-11-19T10:28:13.595Z,244
2022-11-19T10:29:16.360Z,256
2022-11-19T10:30:13.609Z,260
2022-11-19T10:31:13.623Z,252
2022-11-19T10:32:13.660Z,240
2022-11-19T10:33:13.665Z,240
2022-11-19T10:34:13.618Z,248
2022-11-19T10:35:13.579Z,252
2022-11-19T10:36:13.630Z,248
2022-11-19T10:37:13.665Z,232
2022-11-19T10:38:13.605Z,228
2022-11-19T10:39:13.607Z,224
2022-11-19T10:40:16.487Z,228
2022-11-19T10:41:13.612Z,236
2022-11-19T10:42:13.635Z,244
2022-11-19T10:43:13.602Z,252
2022-11-19T10:44:13.605Z,256
2022-11-19T10:45:13.638Z,272
2022-11-19T10:46:13.670Z,292
2022-11-19T10:47:13.677Z,304
2022-11-19T10:48:16.416Z,324
2022-11-19T10:49:13.673Z,336
2022-11-19T10:50:18.169Z,336
2022-11-19T10:51:13.688Z,332
2022-11-19T10:52:13.665Z,324
2022-11-19T10:53:13.644Z,316
2022-11-19T10:54:13.633Z,308
2022-11-19T10:55:13.652Z,304
2022-11-19T10:56:13.752Z,304
2022-11-19T10:57:13.669Z,304
2022-11-19T10:58:13.671Z,296
2022-11-19T10:59:13.614Z,284
2022-11-19T11:00:13.662Z,264
2022-11-19T11:01:13.959Z,244
2022-11-19T11:02:13.657Z,236
2022-11-19T11:03:13.657Z,232
2022-11-19T11:04:13.673Z,224
2022-11-19T11:05:13.675Z,224
2022-11-19T11:06:13.689Z,228
2022-11-19T11:07:16.988Z,232
2022-11-19T11:08:13.681Z,256
2022-11-19T11:09:13.652Z,272
2022-11-19T11:10:13.652Z,276
2022-11-19T11:11:13.694Z,280
2022-11-19T11:12:16.647Z,280
2022-11-19T11:13:13.655Z,284
2022-11-19T11:14:13.691Z,304
2022-11-19T11:15:13.677Z,336
2022-11-19T11:16:13.680Z,376
2022-11-19T11:17:13.684Z,400
2022-11-19T11:18:13.770Z,412
2022-11-19T11:19:13.705Z,408
2022-11-19T11:20:13.682Z,400
2022-11-19T11:21:13.699Z,372
2022-11-19T11:22:13.729Z,332
2022-11-19T11:23:16.633Z,300
2022-11-19T11:24:13.690Z,300
2022-11-19T11:25:14.463Z,312
2022-11-19T11:26:13.678Z,336
2022-11-19T11:27:13.697Z,344
2022-11-19T11:28:13.779Z,336
2022-11-19T11:29:13.697Z,312
2022-11-19T11:30:13.690Z,292
2022-11-19T11:31:13.725Z,284
2022-11-19T11:32:13.683Z,280
2022-11-19T11:33:15.764Z,272
2022-11-19T11:34:16.446Z,260
2022-11-19T11:35:23.582Z,252
2022-11-19T11:36:13.716Z,252
2022-11-19T11:37:13.752Z,252
2022-11-19T11:38:13.769Z,248
2022-11-19T11:39:13.781Z,236
2022-11-19T11:40:13.733Z,216
2022-11-19T11:42:13.143Z,172
2022-11-19T11:42:25.563Z,172
2022-11-19T11:43:25.503Z,148
2022-11-19T11:44:25.461Z,132
2022-11-19T11:45:25.555Z,116
2022-11-19T11:46:28.253Z,108
2022-11-19T11:47:25.468Z,96
2022-11-19T11:48:25.505Z,92
2022-11-19T11:49:26.331Z,92
2022-11-19T11:50:25.502Z,96
2022-11-19T11:51:25.527Z,100
2022-11-19T11:52:25.507Z,112
2022-11-19T11:53:25.527Z,128
2022-11-19T11:54:25.641Z,140
2022-11-19T11:55:25.566Z,152
2022-11-19T11:56:25.496Z,160
2022-11-19T11:57:28.479Z,176
2022-11-19T11:58:25.499Z,188
2022-11-19T11:59:26.495Z,188
2022-11-19T12:00:25.528Z,184
2022-11-19T12:01:25.519Z,176
2022-11-19T12:02:28.742Z,160
2022-11-19T12:03:25.513Z,144
2022-11-19T12:04:25.499Z,140
2022-11-19T12:05:25.520Z,136
2022-11-19T12:06:25.539Z,136
2022-11-19T12:07:25.896Z,132
2022-11-19T12:08:31.931Z,124
2022-11-19T12:09:26.478Z,128
2022-11-19T12:10:25.504Z,120
2022-11-19T12:11:25.488Z,116
2022-11-19T12:12:25.554Z,112
2022-11-19T12:13:26.801Z,104
2022-11-19T12:14:25.524Z,100
2022-11-19T12:15:25.560Z,96
2022-11-19T12:16:25.504Z,88
2022-11-19T12:17:25.499Z,84
2022-11-19T12:18:25.604Z,84
2022-11-19T12:19:29.588Z,80
2022-11-19T12:20:25.509Z,80
2022-11-19T12:21:25.534Z,84
2022-11-19T12:22:25.541Z,80
2022-11-19T12:23:25.601Z,80
2022-11-19T12:24:28.576Z,76
2022-11-19T12:25:25.533Z,72
2022-11-19T12:26:25.550Z,72
2022-11-19T12:27:25.528Z,72
2022-11-19T12:28:25.558Z,72
2022-11-19T12:29:26.559Z,72
2022-11-19T12:30:34.440Z,72
2022-11-19T12:31:30.922Z,68
2022-11-19T12:32:25.528Z,72
2022-11-19T12:33:25.563Z,68
2022-11-19T12:34:25.538Z,72
2022-11-19T12:35:28.652Z,72
2022-11-19T12:36:25.593Z,72
2022-11-19T12:37:25.551Z,68
2022-11-19T12:38:25.747Z,64
2022-11-19T12:39:26.254Z,64
2022-11-19T12:40:25.594Z,68
2022-11-19T12:41:25.562Z,64
2022-11-19T12:42:28.509Z,64
2022-11-19T12:43:25.632Z,56
2022-11-19T12:44:25.537Z,56
2022-11-19T12:45:25.566Z,52
2022-11-19T12:46:28.591Z,52
2022-11-19T12:47:25.558Z,48
2022-11-19T12:48:25.614Z,44
2022-11-19T12:49:26.557Z,44
2022-11-19T12:50:25.576Z,44
2022-11-19T12:51:25.562Z,44
2022-11-19T12:52:25.566Z,44
2022-11-19T12:53:25.620Z,44
2022-11-19T12:54:39.800Z,48
2022-11-19T12:55:25.572Z,48
2022-11-19T12:56:25.671Z,48
2022-11-19T12:57:25.551Z,48
2022-11-19T12:58:25.615Z,48
2022-11-19T12:59:26.482Z,48
2022-11-19T13:00:25.611Z,56
2022-11-19T13:01:26.041Z,60
2022-11-19T13:02:28.627Z,64
2022-11-19T13:03:25.582Z,60
2022-11-19T13:04:25.575Z,60
2022-11-19T13:05:25.594Z,60
2022-11-19T13:06:25.583Z,56
2022-11-19T13:07:25.930Z,56
2022-11-19T13:08:25.613Z,56
2022-11-19T13:09:26.317Z,48
2022-11-19T13:10:25.613Z,52
2022-11-19T13:11:25.636Z,52
2022-11-19T13:12:25.728Z,56
2022-11-19T13:13:26.823Z,52
2022-11-19T13:14:25.597Z,56
2022-11-19T13:15:25.635Z,56
2022-11-19T13:16:25.607Z,56
2022-11-19T13:17:25.592Z,56
2022-11-19T13:18:28.449Z,56
2022-11-19T13:19:26.764Z,56
2022-11-19T13:20:25.602Z,56
2022-11-19T13:21:25.621Z,60
2022-11-19T13:22:25.620Z,64
2022-11-19T13:23:25.649Z,64
2022-11-19T13:24:28.722Z,68
2022-11-19T13:25:25.599Z,72
2022-11-19T13:26:25.643Z,72
2022-11-19T13:27:30.114Z,72
2022-11-19T13:28:25.652Z,76
2022-11-19T13:29:30.611Z,72
2022-11-19T13:30:25.646Z,68
2022-11-19T13:31:25.657Z,68
2022-11-19T13:32:25.631Z,64
2022-11-19T13:33:25.649Z,60
2022-11-19T13:34:25.756Z,56
2022-11-19T13:35:28.463Z,56
2022-11-19T13:36:25.639Z,52
2022-11-19T13:37:25.538Z,56
2022-11-19T13:38:25.659Z,52
2022-11-19T13:39:26.701Z,56
2022-11-19T13:40:28.499Z,56
2022-11-19T13:41:25.663Z,56
2022-11-19T13:42:25.673Z,60
2022-11-19T13:43:41.086Z,64
2022-11-19T13:44:25.692Z,64
2022-11-19T13:45:25.668Z,64
2022-11-19T13:46:28.448Z,72
2022-11-19T13:47:25.716Z,72
2022-11-19T13:48:25.629Z,76
2022-11-19T13:49:26.529Z,76
2022-11-19T13:50:25.690Z,80
2022-11-19T13:51:28.741Z,80
2022-11-19T13:52:25.683Z,84
2022-11-19T13:53:25.680Z,92
2022-11-19T13:54:25.685Z,96
2022-11-19T13:55:25.639Z,108
2022-11-19T13:56:25.677Z,112
2022-11-19T13:57:25.687Z,116
2022-11-19T13:58:25.700Z,120
2022-11-19T13:59:26.776Z,120
2022-11-19T14:00:25.683Z,120
2022-11-19T14:01:25.918Z,116
2022-11-19T14:02:28.451Z,112
2022-11-19T14:03:25.681Z,108
2022-11-19T14:04:25.703Z,108
2022-11-19T14:05:25.718Z,112
2022-11-19T14:06:25.710Z,116
2022-11-19T14:07:33.053Z,124
2022-11-19T14:08:25.684Z,128
2022-11-19T14:09:26.889Z,132
2022-11-19T14:10:25.695Z,140
2022-11-19T14:11:25.696Z,144
2022-11-19T14:12:25.731Z,140
2022-11-19T14:13:28.883Z,132
2022-11-19T14:14:25.808Z,128
2022-11-19T14:15:25.714Z,128
2022-11-19T14:16:25.725Z,136
2022-11-19T14:17:25.753Z,132
2022-11-19T14:18:25.714Z,124
2022-11-19T14:19:26.611Z,120
2022-11-19T14:20:25.715Z,120
2022-11-19T14:21:25.687Z,128
2022-11-19T14:22:25.796Z,124
2022-11-19T14:23:25.696Z,116
2022-11-19T14:24:28.541Z,100